Time;durP1;ratioP1;P1;durP2;ratioP2;P2;SDS_P1;SDS_P2;PMS_P1;PMS_P2;Temp;Humidity;BMP_temperature;BMP_pressure;BME280_temperature;BME280_humidity;BME280_pressure;Samples;Min_cycle;Max_cycle;Signal;HPM_P1;HPM_P2
2022/03/04 00:00:43;;;;;;;13.15;4.90;;;;;;;0.57;46.55;98826.72;5054566;28;20044;-61
2022/03/04 00:03:11;;;;;;;13.98;5.00;;;;;;;0.58;46.67;98819.31;5054811;28;20079;-61
2022/03/04 00:05:39;;;;;;;16.67;5.05;;;;;;;0.55;46.36;98819.88;5054444;28;20114;-61
2022/03/04 00:08:06;;;;;;;18.63;5.78;;;;;;;0.51;46.60;98827.88;5054896;28;20080;-61
2022/03/04 00:10:34;;;;;;;16.13;5.07;;;;;;;0.46;46.61;98827.91;5054590;28;20045;-61
2022/03/04 00:13:01;;;;;;;11.50;5.28;;;;;;;0.48;46.42;98824.88;5054469;28;20057;-61
2022/03/04 00:15:28;;;;;;;11.43;5.20;;;;;;;0.51;46.38;98833.34;5053992;28;20049;-60
2022/03/04 00:17:55;;;;;;;15.55;5.25;;;;;;;0.52;46.28;98834.97;5053097;28;20049;-61
2022/03/04 00:20:23;;;;;;;10.73;4.75;;;;;;;0.51;46.55;98833.34;5052677;28;20056;-61
2022/03/04 00:22:50;;;;;;;9.27;4.32;;;;;;;0.51;46.43;98827.03;5054688;28;20048;-61
2022/03/04 00:25:18;;;;;;;13.90;4.82;;;;;;;0.49;46.48;98830.06;5054232;28;20059;-61
2022/03/04 00:27:45;;;;;;;10.68;4.45;;;;;;;0.48;46.33;98831.19;5053615;28;20052;-61
2022/03/04 00:30:13;;;;;;;9.32;4.35;;;;;;;0.49;46.39;98832.81;5054264;28;20467;-59
2022/03/04 00:32:40;;;;;;;14.20;4.18;;;;;;;0.49;46.50;98827.31;5054282;28;20519;-60
2022/03/04 00:35:08;;;;;;;15.02;4.40;;;;;;;0.45;46.63;98826.28;5054039;28;20511;-59
2022/03/04 00:37:35;;;;;;;15.10;4.82;;;;;;;0.43;46.87;98819.44;5053640;28;20519;-59
2022/03/04 00:40:06;;;;;;;8.97;4.57;;;;;;;0.41;46.42;98833.38;5054014;28;20045;-66
2022/03/04 00:42:33;;;;;;;9.70;4.57;;;;;;;0.40;46.65;98834.50;5053777;28;20668;-65
2022/03/04 00:45:00;;;;;;;9.18;4.47;;;;;;;0.37;47.02;98826.88;5053889;28;20051;-65
2022/03/04 00:47:29;;;;;;;9.38;4.03;;;;;;;0.34;47.01;98838.38;5051845;28;20053;-64
2022/03/04 00:49:58;;;;;;;20.02;5.65;;;;;;;0.29;47.35;98835.66;5043605;28;20467;-66
2022/03/04 00:52:25;;;;;;;11.88;5.28;;;;;;;0.28;47.25;98831.31;5053572;28;20059;-65
2022/03/04 00:54:52;;;;;;;10.20;4.43;;;;;;;0.26;47.56;98843.63;5053418;28;20049;-62
2022/03/04 00:57:20;;;;;;;10.57;4.78;;;;;;;0.23;47.66;98841.47;5052118;28;20067;-62
2022/03/04 00:59:46;;;;;;;9.07;5.47;;;;;;;0.15;47.72;98834.69;5053993;28;20056;-61
2022/03/04 01:02:13;;;;;;;8.65;3.80;;;;;;;0.10;47.82;98840.16;5053615;28;20136;-62
2022/03/04 01:04:41;;;;;;;11.68;4.82;;;;;;;-0.02;47.96;98834.22;5052654;28;20051;-61
2022/03/04 01:07:08;;;;;;;12.80;4.53;;;;;;;-0.05;48.02;98837.53;5053082;28;20049;-61
2022/03/04 01:09:35;;;;;;;11.77;4.32;;;;;;;-0.05;48.10;98835.59;5053231;28;20539;-61
2022/03/04 01:12:04;;;;;;;9.77;3.95;;;;;;;-0.14;48.66;98831.81;5052012;28;20055;-62
2022/03/04 01:14:31;;;;;;;9.82;3.70;;;;;;;-0.23;48.93;98822.56;5052449;28;20053;-62
2022/03/04 01:16:58;;;;;;;12.38;4.50;;;;;;;-0.27;48.53;98832.41;5053948;28;20057;-60
2022/03/04 01:19:25;;;;;;;9.18;3.97;;;;;;;-0.30;49.01;98832.97;5052772;28;20051;-61
2022/03/04 01:21:53;;;;;;;8.90;4.32;;;;;;;-0.38;48.96;98835.47;5053721;28;20051;-60
2022/03/04 01:24:20;;;;;;;8.23;4.07;;;;;;;-0.39;48.96;98836.56;5052863;28;20053;-61
2022/03/04 01:26:47;;;;;;;12.88;4.53;;;;;;;-0.38;49.18;98838.22;5053285;28;20526;-61
2022/03/04 01:29:14;;;;;;;11.77;3.78;;;;;;;-0.41;49.16;98836.03;5052623;28;20044;-61
2022/03/04 01:31:41;;;;;;;9.02;4.00;;;;;;;-0.46;49.53;98828.69;5051629;28;20091;-61
2022/03/04 01:34:11;;;;;;;9.43;4.18;;;;;;;-0.51;49.34;98816.94;5051254;28;20056;-62
2022/03/04 01:36:38;;;;;;;11.80;3.85;;;;;;;-0.48;49.30;98821.84;5052883;28;20393;-61
2022/03/04 01:39:05;;;;;;;16.02;3.58;;;;;;;-0.52;49.87;98823.50;5052585;28;20049;-61
2022/03/04 01:41:33;;;;;;;10.95;3.72;;;;;;;-0.59;49.77;98818.34;5052957;28;20080;-61
2022/03/04 01:44:00;;;;;;;14.43;4.68;;;;;;;-0.67;50.15;98818.09;5052464;28;20526;-61
2022/03/04 01:46:30;;;;;;;10.20;4.00;;;;;;;-0.69;50.21;98812.91;5051971;28;20098;-61
2022/03/04 01:48:57;;;;;;;9.65;3.53;;;;;;;-0.79;50.51;98818.41;5055533;28;20094;-57
2022/03/04 01:51:25;;;;;;;9.48;4.50;;;;;;;-0.83;50.98;98819.25;5052536;28;20073;-60
2022/03/04 01:53:53;;;;;;;11.50;4.22;;;;;;;-0.79;50.49;98817.59;5052775;28;20503;-59
2022/03/04 01:56:20;;;;;;;9.85;3.88;;;;;;;-0.85;50.95;98819.53;5051956;28;20143;-58
2022/03/04 01:58:47;;;;;;;12.38;4.03;;;;;;;-0.90;51.10;98810.50;5052014;28;20065;-58
2022/03/04 02:01:14;;;;;;;9.20;4.03;;;;;;;-0.99;51.14;98803.97;5052166;28;20048;-59
2022/03/04 02:03:42;;;;;;;7.20;3.47;;;;;;;-0.99;51.92;98809.44;5052398;28;20503;-59
2022/03/04 02:06:09;;;;;;;14.88;4.90;;;;;;;-1.12;52.07;98807.28;5052038;28;20060;-63
2022/03/04 02:08:36;;;;;;;10.20;4.40;;;;;;;-1.15;51.99;98802.38;5052051;28;20419;-65
2022/03/04 02:11:04;;;;;;;10.77;4.25;;;;;;;-1.10;51.41;98802.38;5051723;28;20048;-65
2022/03/04 02:13:31;;;;;;;13.70;4.38;;;;;;;-1.11;51.66;98811.63;5052492;28;20091;-65
2022/03/04 02:15:58;;;;;;;18.33;4.80;;;;;;;-1.16;51.78;98817.13;5052144;28;20495;-65
2022/03/04 02:18:25;;;;;;;10.15;4.35;;;;;;;-1.13;51.51;98819.31;5052318;28;20059;-65
2022/03/04 02:20:53;;;;;;;7.65;4.25;;;;;;;-1.09;51.64;98825.84;5051830;28;20152;-65
2022/03/04 02:23:21;;;;;;;15.38;4.72;;;;;;;-1.08;51.81;98822.00;5052087;28;20432;-65
2022/03/04 02:25:51;;;;;;;14.60;5.80;;;;;;;-1.08;51.65;98816.53;5052065;28;20072;-65
2022/03/04 02:28:21;;;;;;;8.15;4.00;;;;;;;-1.18;52.26;98820.13;5052427;28;20514;-64
2022/03/04 02:30:48;;;;;;;15.18;5.35;;;;;;;-1.28;52.34;98819.31;5051691;28;20052;-64
2022/03/04 02:33:16;;;;;;;14.40;4.20;;;;;;;-1.27;52.05;98812.75;5051962;28;20104;-64
2022/03/04 02:35:44;;;;;;;15.05;5.13;;;;;;;-1.28;52.48;98809.19;5034148;28;20066;-65
2022/03/04 02:38:11;;;;;;;10.57;4.93;;;;;;;-1.30;52.64;98807.84;5051945;28;20059;-66
2022/03/04 02:40:38;;;;;;;10.40;4.88;;;;;;;-1.42;52.64;98807.31;5052085;28;20051;-65
2022/03/04 02:43:06;;;;;;;18.00;6.22;;;;;;;-1.43;53.22;98808.38;5051777;28;20547;-65
2022/03/04 02:45:33;;;;;;;12.77;4.95;;;;;;;-1.40;53.31;98816.84;5051726;28;20056;-64
2022/03/04 02:48:04;;;;;;;12.32;4.85;;;;;;;-1.42;53.46;98807.31;5051658;28;20044;-65
2022/03/04 02:50:31;;;;;;;11.98;4.15;;;;;;;-1.51;53.29;98804.28;5043980;28;20506;-65
2022/03/04 02:52:58;;;;;;;15.10;5.30;;;;;;;-1.56;53.55;98806.22;5051429;28;20161;-65
2022/03/04 02:55:25;;;;;;;15.60;5.63;;;;;;;-1.50;53.75;98816.03;5051874;28;20156;-65
2022/03/04 02:57:52;;;;;;;13.32;4.82;;;;;;;-1.52;53.55;98813.56;5051440;28;20056;-65
2022/03/04 03:00:19;;;;;;;17.88;5.40;;;;;;;-1.52;53.82;98815.47;5051375;28;20500;-65
2022/03/04 03:02:46;;;;;;;10.93;4.97;;;;;;;-1.52;53.67;98815.47;5051506;28;20083;-65
2022/03/04 03:05:13;;;;;;;11.35;4.95;;;;;;;-1.49;53.45;98812.19;5051889;28;20195;-65
2022/03/04 03:07:41;;;;;;;11.25;4.50;;;;;;;-1.54;53.61;98821.19;5049775;28;20049;-64
2022/03/04 03:10:09;;;;;;;12.43;5.18;;;;;;;-1.62;54.40;98829.13;5051669;28;20131;-65
2022/03/04 03:12:39;;;;;;;13.18;4.55;;;;;;;-1.66;53.85;98828.81;5055158;28;20106;-65
2022/03/04 03:15:09;;;;;;;13.88;6.00;;;;;;;-1.57;54.05;98831.84;5050544;28;20049;-66
2022/03/04 03:17:37;;;;;;;14.88;5.80;;;;;;;-1.45;53.38;98829.69;5055253;28;20561;-65
2022/03/04 03:20:05;;;;;;;10.88;5.00;;;;;;;-1.42;53.32;98834.59;5055488;28;20047;-65
2022/03/04 03:22:32;;;;;;;12.20;4.60;;;;;;;-1.50;53.67;98832.41;5055506;28;20494;-66
2022/03/04 03:24:59;;;;;;;15.25;5.72;;;;;;;-1.61;54.89;98830.75;5055055;28;20527;-66
2022/03/04 03:27:26;;;;;;;15.95;5.13;;;;;;;-1.71;54.75;98830.75;5055410;28;20045;-66
2022/03/04 03:29:53;;;;;;;18.67;5.53;;;;;;;-1.76;55.35;98833.44;5054628;28;20049;-65
2022/03/04 03:32:20;;;;;;;14.25;5.70;;;;;;;-1.79;55.34;98828.53;5055454;28;20053;-66
2022/03/04 03:34:47;;;;;;;14.20;5.45;;;;;;;-1.76;55.03;98828.81;5054624;28;20044;-64
2022/03/04 03:37:14;;;;;;;12.50;4.80;;;;;;;-1.70;55.25;98837.81;5055242;28;20045;-64
2022/03/04 03:39:41;;;;;;;11.63;4.72;;;;;;;-1.70;54.67;98832.38;5054794;28;20053;-65
2022/03/04 03:42:08;;;;;;;8.70;4.28;;;;;;;-1.72;54.25;98829.91;5054925;28;20053;-65
2022/03/04 03:44:35;;;;;;;11.68;5.38;;;;;;;-1.69;54.70;98834.03;5054599;28;20155;-64
2022/03/04 03:47:03;;;;;;;17.23;4.75;;;;;;;-1.60;54.38;98841.38;5054919;28;20483;-65
2022/03/04 03:49:30;;;;;;;13.82;5.70;;;;;;;-1.67;54.64;98842.72;5054077;28;20135;-66
2022/03/04 03:51:57;;;;;;;17.23;5.15;;;;;;;-1.71;55.01;98847.09;5054979;28;20079;-65
2022/03/04 03:54:24;;;;;;;14.07;5.60;;;;;;;-1.78;55.32;98852.00;5054302;28;20048;-66
2022/03/04 03:56:51;;;;;;;13.48;5.38;;;;;;;-1.79;55.96;98858.53;5054594;28;20554;-64
2022/03/04 03:59:18;;;;;;;14.98;6.10;;;;;;;-1.92;56.36;98862.59;5054777;28;20097;-65
2022/03/04 04:01:45;;;;;;;10.10;4.82;;;;;;;-1.94;56.26;98860.16;5054285;28;20096;-65
2022/03/04 04:04:13;;;;;;;14.02;5.85;;;;;;;-1.91;56.03;98865.06;5053696;28;20053;-64
2022/03/04 04:06:41;;;;;;;16.90;6.18;;;;;;;-1.86;55.86;98866.97;5054193;28;20049;-65
2022/03/04 04:09:09;;;;;;;16.80;5.65;;;;;;;-1.84;55.98;98864.00;5054637;28;20048;-67
2022/03/04 04:11:38;;;;;;;12.18;5.75;;;;;;;-1.83;55.97;98867.25;5054362;28;20508;-65
2022/03/04 04:14:07;;;;;;;15.35;6.32;;;;;;;-1.86;55.59;98862.31;5054657;28;20056;-65
2022/03/04 04:16:34;;;;;;;16.15;6.15;;;;;;;-1.84;56.34;98861.25;5054232;28;20052;-66
2022/03/04 04:19:02;;;;;;;15.15;6.40;;;;;;;-1.84;56.22;98867.50;5054336;28;20048;-65
2022/03/04 04:21:29;;;;;;;14.70;6.25;;;;;;;-1.83;56.34;98866.44;5054139;28;20047;-65
2022/03/04 04:23:56;;;;;;;13.73;7.47;;;;;;;-1.87;56.16;98866.16;5053939;28;20048;-65
2022/03/04 04:26:23;;;;;;;13.40;5.88;;;;;;;-1.95;56.59;98869.38;5054283;28;20080;-66
2022/03/04 04:28:51;;;;;;;16.90;7.20;;;;;;;-2.07;57.31;98857.91;5053277;28;20055;-65
2022/03/04 04:31:18;;;;;;;14.13;6.05;;;;;;;-2.24;57.67;98862.78;5054335;28;20071;-61
2022/03/04 04:33:45;;;;;;;14.73;7.55;;;;;;;-2.32;58.55;98865.19;5050976;28;20056;-63
2022/03/04 04:36:12;;;;;;;17.77;6.70;;;;;;;-2.30;57.75;98874.75;5062155;28;20048;-62
2022/03/04 04:38:39;;;;;;;13.65;6.07;;;;;;;-2.29;58.19;98873.66;5053927;28;20056;-62
2022/03/04 04:41:06;;;;;;;14.90;6.13;;;;;;;-2.33;59.00;98882.63;5054538;28;20073;-62
2022/03/04 04:43:34;;;;;;;16.05;7.70;;;;;;;-2.31;58.49;98880.47;5054125;28;20049;-62
2022/03/04 04:46:02;;;;;;;19.80;7.03;;;;;;;-2.35;58.73;98874.72;5053891;28;20068;-62
2022/03/04 04:48:29;;;;;;;22.27;8.93;;;;;;;-2.26;58.55;98884.00;5055854;28;20057;-61
2022/03/04 04:50:59;;;;;;;15.40;8.10;;;;;;;-2.19;58.46;98881.84;5053919;28;20403;-62
2022/03/04 04:53:29;;;;;;;23.63;8.40;;;;;;;-2.15;58.13;98882.97;5053182;28;20059;-61
2022/03/04 04:55:57;;;;;;;24.73;8.07;;;;;;;-2.06;57.93;98886.81;5053845;28;20067;-64
2022/03/04 04:58:25;;;;;;;15.27;7.85;;;;;;;-2.05;58.38;98888.44;5053148;28;20411;-62
2022/03/04 05:00:55;;;;;;;23.77;8.52;;;;;;;-2.01;58.67;98895.00;5052317;28;20047;-62
2022/03/04 05:03:24;;;;;;;18.75;7.70;;;;;;;-1.92;58.55;98896.09;5053408;28;20053;-62
2022/03/04 05:05:52;;;;;;;20.25;8.32;;;;;;;-1.94;58.92;98903.75;5053709;28;20044;-63
2022/03/04 05:08:20;;;;;;;22.02;9.07;;;;;;;-1.98;58.84;98905.34;5053219;28;20052;-62
2022/03/04 05:10:47;;;;;;;15.20;6.40;;;;;;;-2.03;58.90;98910.81;5053525;28;20103;-62
2022/03/04 05:13:15;;;;;;;17.85;8.40;;;;;;;-2.09;59.00;98914.59;5052756;28;20435;-62
2022/03/04 05:15:42;;;;;;;17.80;7.70;;;;;;;-2.11;60.12;98924.09;5053619;28;20136;-62
2022/03/04 05:18:09;;;;;;;16.88;7.88;;;;;;;-2.32;60.07;98915.03;5052767;28;20083;-61
2022/03/04 05:20:36;;;;;;;16.70;7.72;;;;;;;-2.38;60.96;98918.81;5053436;28;20053;-62
2022/03/04 05:23:03;;;;;;;24.30;7.43;;;;;;;-2.40;60.96;98926.41;5053178;28;20475;-62
2022/03/04 05:25:30;;;;;;;28.52;9.90;;;;;;;-2.30;60.00;98931.94;5052994;28;20530;-62
2022/03/04 05:27:57;;;;;;;24.70;9.07;;;;;;;-2.32;61.15;98927.81;5053111;28;20087;-61
2022/03/04 05:30:24;;;;;;;25.77;8.70;;;;;;;-2.38;61.67;98932.44;5052986;28;20130;-62
2022/03/04 05:32:51;;;;;;;20.42;8.43;;;;;;;-2.37;60.87;98938.69;5053320;28;20095;-62
2022/03/04 05:35:19;;;;;;;16.15;8.20;;;;;;;-2.35;60.92;98940.06;5051188;28;20503;-62
2022/03/04 05:37:46;;;;;;;17.08;6.22;;;;;;;-2.35;60.82;98934.63;5053130;28;20049;-62
2022/03/04 05:40:13;;;;;;;17.20;8.10;;;;;;;-2.32;60.83;98939.53;5052352;28;20421;-62
2022/03/04 05:42:39;;;;;;;17.90;8.43;;;;;;;-2.29;61.26;98938.19;5051612;28;20072;-62
2022/03/04 05:45:07;;;;;;;18.55;7.47;;;;;;;-2.26;60.92;98943.94;5050708;28;20144;-62
2022/03/04 05:47:34;;;;;;;20.95;8.43;;;;;;;-2.22;60.87;98944.22;5067665;28;20063;-62
2022/03/04 05:50:01;;;;;;;20.80;9.13;;;;;;;-2.14;60.61;98941.81;5049586;28;20049;-61
2022/03/04 05:52:29;;;;;;;19.92;8.98;;;;;;;-2.04;59.76;98943.78;5052244;28;20044;-61
2022/03/04 05:54:55;;;;;;;23.17;8.35;;;;;;;-2.00;60.37;98944.88;5051246;28;20141;-61
2022/03/04 05:57:22;;;;;;;20.63;9.23;;;;;;;-1.95;60.34;98951.16;5051716;28;20122;-62
2022/03/04 05:59:50;;;;;;;28.02;8.98;;;;;;;-1.99;60.50;98946.50;5050543;28;20427;-62
2022/03/04 06:02:17;;;;;;;18.55;8.95;;;;;;;-1.92;60.54;98949.81;5051134;28;20076;-61
2022/03/04 06:04:45;;;;;;;20.08;8.93;;;;;;;-1.86;60.20;98949.53;5050556;28;20045;-60
2022/03/04 06:07:12;;;;;;;16.02;7.03;;;;;;;-1.95;60.44;98955.78;5051116;28;20051;-62
2022/03/04 06:09:39;;;;;;;20.65;9.27;;;;;;;-2.07;61.27;98947.03;5052207;28;20049;-66
2022/03/04 06:12:06;;;;;;;18.70;8.38;;;;;;;-2.14;61.07;98957.31;5058619;28;20075;-62
2022/03/04 06:14:33;;;;;;;22.30;8.45;;;;;;;-2.10;61.31;98953.81;5052606;28;20144;-62
2022/03/04 06:17:00;;;;;;;22.88;8.85;;;;;;;-2.09;61.46;98950.00;5052006;28;20041;-61
2022/03/04 06:19:36;;;;;;;17.70;8.40;;;;;;;-1.98;61.09;98948.94;5052322;28;20132;-63
2022/03/04 06:22:03;;;;;;;18.50;8.05;;;;;;;-1.88;60.77;98946.28;5051852;28;20049;-61
2022/03/04 06:24:31;;;;;;;17.60;7.85;;;;;;;-1.90;60.86;98959.34;5052624;28;20135;-61
2022/03/04 06:26:58;;;;;;;14.77;7.47;;;;;;;-1.92;60.29;98942.44;5051596;28;20102;-62
2022/03/04 06:29:25;;;;;;;18.92;8.07;;;;;;;-1.82;60.33;98947.13;5052078;28;20136;-61
2022/03/04 06:31:52;;;;;;;19.63;8.85;;;;;;;-1.83;60.73;98953.66;5051495;28;20561;-63
2022/03/04 06:34:20;;;;;;;18.98;7.15;;;;;;;-1.82;60.58;98952.56;5052303;28;20080;-62
2022/03/04 06:36:47;;;;;;;15.30;7.63;;;;;;;-1.83;60.90;98951.72;5051656;28;20052;-63
2022/03/04 06:39:13;;;;;;;31.15;8.35;;;;;;;-1.75;60.85;98953.13;5051812;28;20140;-62
2022/03/04 06:41:41;;;;;;;81.72;31.65;;;;;;;-1.72;60.59;98955.31;5051192;28;20578;-62
2022/03/04 06:44:09;;;;;;;24.27;9.05;;;;;;;-1.62;60.56;98962.72;5048271;28;20051;-61
2022/03/04 06:46:36;;;;;;;13.85;7.43;;;;;;;-1.54;60.16;98962.19;5051166;28;20049;-61
2022/03/04 06:49:03;;;;;;;17.05;7.60;;;;;;;-1.76;60.78;98947.94;5051248;28;20132;-64
2022/03/04 06:51:30;;;;;;;19.80;8.48;;;;;;;-1.69;60.85;98965.69;5051668;28;20068;-62
2022/03/04 06:53:57;;;;;;;18.50;8.40;;;;;;;-1.58;60.04;98961.09;5051345;28;20139;-61
2022/03/04 06:56:25;;;;;;;15.30;7.70;;;;;;;-1.53;59.89;98959.22;5051290;28;20472;-62
2022/03/04 06:58:53;;;;;;;17.20;8.27;;;;;;;-1.45;59.79;98947.75;5050900;28;20160;-62
2022/03/04 07:01:21;;;;;;;39.38;13.88;;;;;;;-1.28;60.10;98961.19;5051848;28;20045;-63
2022/03/04 07:03:48;;;;;;;65.03;10.10;;;;;;;-1.43;60.18;98963.84;5051002;28;20056;-61
2022/03/04 07:06:19;;;;;;;34.00;8.43;;;;;;;-1.43;60.01;98963.84;5051525;28;20123;-61
2022/03/04 07:08:46;;;;;;;18.80;8.65;;;;;;;-1.28;59.75;98972.09;5051053;28;20049;-62
2022/03/04 07:11:13;;;;;;;17.48;7.05;;;;;;;-1.15;59.42;98971.56;5051682;28;20052;-62
2022/03/04 07:13:40;;;;;;;26.38;8.43;;;;;;;-1.03;59.28;98980.28;5051000;28;20053;-62
2022/03/04 07:16:07;;;;;;;13.07;7.00;;;;;;;-0.94;59.23;98970.47;5051428;28;20052;-62
2022/03/04 07:18:34;;;;;;;12.85;5.82;;;;;;;-1.07;59.87;98979.22;5049888;28;20059;-62
2022/03/04 07:21:02;;;;;;;10.85;4.85;;;;;;;-1.20;60.00;98974.25;5049846;28;20072;-62
2022/03/04 07:23:29;;;;;;;10.93;6.22;;;;;;;-1.41;60.38;98978.88;5054513;28;20044;-62
2022/03/04 07:25:56;;;;;;;15.45;7.18;;;;;;;-1.48;60.41;98977.50;5050956;28;20059;-62
2022/03/04 07:28:23;;;;;;;17.70;6.80;;;;;;;-1.54;60.36;98973.91;5053625;28;20063;-61
2022/03/04 07:30:50;;;;;;;12.57;6.30;;;;;;;-1.55;60.81;98971.44;5050368;28;20045;-62
2022/03/04 07:33:17;;;;;;;20.08;6.30;;;;;;;-1.50;60.19;98969.56;5051348;28;20040;-61
2022/03/04 07:35:45;;;;;;;51.17;15.27;;;;;;;-1.47;59.91;98970.94;5050169;28;20059;-60
2022/03/04 07:38:14;;;;;;;13.68;6.25;;;;;;;-1.42;59.47;98973.69;5057009;28;20076;-61
2022/03/04 07:40:44;;;;;;;12.00;5.90;;;;;;;-1.40;59.74;98975.03;5051066;28;20049;-62
2022/03/04 07:43:11;;;;;;;9.65;5.78;;;;;;;-1.37;59.66;98973.69;5051271;28;20052;-62
2022/03/04 07:45:38;;;;;;;19.17;6.85;;;;;;;-1.31;59.75;98962.50;5050720;28;20118;-61
2022/03/04 07:48:05;;;;;;;12.93;6.53;;;;;;;-1.36;59.80;98975.34;5049403;28;20052;-61
2022/03/04 07:50:32;;;;;;;11.48;5.45;;;;;;;-1.30;59.18;98976.97;5049761;28;20045;-62
2022/03/04 07:52:59;;;;;;;49.03;18.45;;;;;;;-1.32;59.43;98981.88;5051451;28;20357;-61
2022/03/04 07:55:27;;;;;;;19.45;7.53;;;;;;;-1.32;59.38;98988.16;5052750;28;20057;-61
2022/03/04 07:57:55;;;;;;;8.02;4.53;;;;;;;-1.29;59.88;98984.06;5052371;28;20052;-62
2022/03/04 08:00:26;;;;;;;11.23;5.15;;;;;;;-1.18;59.40;98988.47;5054515;28;20531;-62
2022/03/04 08:02:54;;;;;;;15.48;5.78;;;;;;;-1.10;58.86;98986.00;5054660;28;20589;-62
2022/03/04 08:05:22;;;;;;;14.18;6.05;;;;;;;-1.11;59.21;98980.81;5052461;28;20056;-61
2022/03/04 08:07:49;;;;;;;9.27;4.97;;;;;;;-1.15;59.03;98985.19;5054442;28;20053;-60
2022/03/04 08:10:16;;;;;;;8.18;4.63;;;;;;;-1.08;58.97;98989.28;5052009;28;20472;-60
2022/03/04 08:12:43;;;;;;;19.38;6.43;;;;;;;-0.98;58.93;98980.31;5053547;28;20072;-59
2022/03/04 08:15:11;;;;;;;13.43;6.78;;;;;;;-0.73;58.35;98991.22;5057100;28;20094;-57
2022/03/04 08:17:40;;;;;;;10.48;5.57;;;;;;;-0.67;58.13;98987.41;5052547;28;20049;-61
2022/03/04 08:20:08;;;;;;;13.73;6.57;;;;;;;-0.64;58.20;98984.13;5062487;28;20415;-60
2022/03/04 08:22:35;;;;;;;44.90;15.68;;;;;;;-0.45;57.79;98987.91;5056739;28;20048;-60
2022/03/04 08:25:04;;;;;;;18.02;9.13;;;;;;;-0.22;57.38;98990.06;5060894;28;20045;-62
2022/03/04 08:27:31;;;;;;;12.73;6.45;;;;;;;-0.09;57.07;98978.56;5056192;28;20045;-62
2022/03/04 08:29:58;;;;;;;18.77;6.75;;;;;;;-0.11;57.09;98983.50;5058377;28;20052;-59
2022/03/04 08:32:25;;;;;;;14.02;4.53;;;;;;;-0.06;56.83;98980.75;5055939;28;20136;-60
2022/03/04 08:34:59;;;;;;;20.92;6.93;;;;;;;-0.22;57.09;98979.16;5050789;28;20041;-62
2022/03/04 08:37:26;;;;;;;12.27;5.87;;;;;;;-0.24;57.28;98967.66;5056416;28;20508;-62
2022/03/04 08:39:54;;;;;;;11.88;5.90;;;;;;;-0.33;57.40;98980.25;5054625;28;20060;-62
2022/03/04 08:42:21;;;;;;;11.32;5.32;;;;;;;-0.24;57.34;98978.59;5053093;28;20045;-62
2022/03/04 08:44:48;;;;;;;10.80;5.60;;;;;;;-0.01;56.60;98973.34;5053446;28;20049;-60
2022/03/04 08:47:15;;;;;;;12.63;5.57;;;;;;;0.44;55.85;98975.09;5052509;28;20059;-63
2022/03/04 08:49:42;;;;;;;11.43;5.72;;;;;;;0.54;54.98;98980.53;5053021;28;20102;-66
2022/03/04 08:52:09;;;;;;;11.93;5.35;;;;;;;0.42;55.41;98977.31;5052769;28;20040;-60
2022/03/04 08:54:37;;;;;;;15.95;5.60;;;;;;;0.28;55.80;98969.97;5053518;28;20048;-60
2022/03/04 08:57:04;;;;;;;12.52;5.72;;;;;;;0.34;55.96;98974.31;5052443;28;20063;-59
2022/03/04 08:59:33;;;;;;;13.43;6.30;;;;;;;0.73;55.17;98973.28;5054568;28;20488;-61
2022/03/04 09:02:00;;;;;;;18.50;6.10;;;;;;;1.02;54.59;98967.91;5060437;28;20039;-65
2022/03/04 09:04:30;;;;;;;13.75;5.85;;;;;;;1.09;54.52;98966.47;5057850;28;20119;-66
2022/03/04 09:06:57;;;;;;;12.02;6.38;;;;;;;1.11;54.66;98964.28;5055885;28;20049;-60
2022/03/04 09:09:24;;;;;;;23.60;7.25;;;;;;;1.16;54.14;98966.94;5049966;28;20080;-61
2022/03/04 09:11:51;;;;;;;13.45;5.70;;;;;;;1.22;54.14;98965.81;5061364;28;20604;-55
2022/03/04 09:14:19;;;;;;;13.52;5.50;;;;;;;1.34;53.85;98969.03;5055552;28;20049;-59
2022/03/04 09:16:46;;;;;;;17.83;6.45;;;;;;;1.57;52.91;98976.47;5057775;28;20041;-60
2022/03/04 09:19:13;;;;;;;25.30;6.55;;;;;;;1.71;53.21;98976.63;5053700;28;20110;-60
2022/03/04 09:21:41;;;;;;;12.57;5.85;;;;;;;1.86;52.67;98969.06;5054801;28;20385;-63
2022/03/04 09:24:08;;;;;;;15.63;6.18;;;;;;;1.99;52.51;98969.47;5052413;28;20059;-62
2022/03/04 09:26:35;;;;;;;11.63;6.32;;;;;;;1.89;52.22;98970.41;5053159;28;20102;-62
2022/03/04 09:29:02;;;;;;;12.65;5.57;;;;;;;1.78;52.19;98966.94;5053801;28;20063;-63
2022/03/04 09:31:29;;;;;;;16.33;5.57;;;;;;;1.43;53.06;98974.69;5051411;28;20068;-62
2022/03/04 09:33:56;;;;;;;11.60;5.05;;;;;;;1.28;52.74;98972.09;5058636;28;20057;-62
2022/03/04 09:36:23;;;;;;;11.82;5.72;;;;;;;1.34;53.08;98974.50;5058207;28;20053;-62
2022/03/04 09:38:50;;;;;;;11.98;4.95;;;;;;;1.57;52.52;98976.47;5054343;28;20037;-62
2022/03/04 09:41:18;;;;;;;11.60;5.07;;;;;;;1.65;52.22;98977.78;5053903;28;20507;-63
2022/03/04 09:43:51;;;;;;;13.05;5.50;;;;;;;1.43;52.50;98967.31;5054321;28;20052;-62
2022/03/04 09:46:21;;;;;;;21.52;8.63;;;;;;;1.52;52.79;98965.56;5058986;28;20048;-61
2022/03/04 09:48:49;;;;;;;15.13;6.22;;;;;;;1.91;51.87;98962.72;5052012;28;20126;-58
2022/03/04 09:51:17;;;;;;;11.35;5.05;;;;;;;2.24;50.86;98953.53;5055908;28;20044;-60
2022/03/04 09:53:44;;;;;;;14.27;5.70;;;;;;;2.70;49.70;98959.25;5055324;28;20056;-61
2022/03/04 09:56:12;;;;;;;12.60;5.38;;;;;;;3.09;48.86;98957.84;5059834;28;20057;-60
2022/03/04 09:58:40;;;;;;;11.45;5.20;;;;;;;3.18;48.78;98961.56;5057074;28;20155;-62
2022/03/04 10:01:11;;;;;;;8.00;4.90;;;;;;;2.78;49.62;98956.66;5055673;28;20098;-62
2022/03/04 10:03:50;;;;;;;10.07;5.28;;;;;;;2.75;49.57;98962.75;5055650;28;20054;-63
2022/03/04 10:06:18;;;;;;;11.35;4.55;;;;;;;2.54;50.19;98955.06;5053390;28;20048;-65
2022/03/04 10:08:51;;;;;;;7.82;4.22;;;;;;;2.41;50.15;98947.56;5058055;28;20083;-66
2022/03/04 10:11:29;;;;;;;8.85;4.68;;;;;;;2.31;49.99;98953.19;5051051;28;20045;-65
2022/03/04 10:13:59;;;;;;;14.18;4.70;;;;;;;1.90;51.06;98950.13;5051552;28;20509;-61
2022/03/04 10:16:28;;;;;;;12.90;4.50;;;;;;;1.83;51.00;98952.38;5049354;28;20045;-62
2022/03/04 10:19:07;;;;;;;11.75;5.07;;;;;;;1.93;51.14;98958.56;5051415;28;20049;-63
2022/03/04 10:21:52;;;;;;;10.65;3.58;;;;;;;1.89;50.95;98957.50;5049992;28;20584;-63
2022/03/04 10:24:29;;;;;;;11.70;5.15;;;;;;;1.82;50.96;98959.78;5049946;28;20068;-63
2022/03/04 10:26:59;;;;;;;10.10;4.35;;;;;;;1.78;50.78;98955.97;5056308;28;20044;-62
2022/03/04 10:29:27;;;;;;;15.20;4.70;;;;;;;1.66;50.84;98946.53;5057146;28;20106;-63
2022/03/04 10:32:24;;;;;;;9.23;4.75;;;;;;;1.74;51.52;98952.19;5056203;28;20052;-62
2022/03/04 10:35:00;;;;;;;10.80;3.95;;;;;;;1.43;51.68;98948.13;5050564;28;20098;-62
2022/03/04 10:37:48;;;;;;;11.05;3.28;;;;;;;1.50;51.39;98958.72;5051045;28;20075;-62
2022/03/04 10:40:29;;;;;;;11.68;3.65;;;;;;;1.43;51.92;98948.13;5051469;28;20049;-65
2022/03/04 10:43:01;;;;;;;11.38;3.30;;;;;;;1.36;51.98;98939.41;5054050;28;20039;-65
2022/03/04 10:45:41;;;;;;;7.85;3.67;;;;;;;1.40;51.90;98932.25;5044971;28;20048;-65
2022/03/04 10:48:17;;;;;;;7.95;3.90;;;;;;;1.41;51.72;98944.84;5051493;28;20045;-66
2022/03/04 10:50:44;;;;;;;10.07;3.47;;;;;;;1.63;51.69;98945.16;5048306;28;20714;-65
2022/03/04 10:53:19;;;;;;;16.70;4.05;;;;;;;1.56;51.93;98941.97;5051946;28;20049;-65
2022/03/04 10:55:49;;;;;;;10.55;3.75;;;;;;;1.66;51.61;98943.78;5055391;28;20135;-65
2022/03/04 10:58:22;;;;;;;12.20;3.75;;;;;;;1.75;51.14;98937.38;5066568;28;20424;-61
2022/03/04 11:00:52;;;;;;;10.65;3.85;;;;;;;1.90;51.11;98928.97;5057982;28;20086;-61
2022/03/04 11:03:19;;;;;;;16.00;3.85;;;;;;;2.02;50.41;98930.50;5051067;28;20068;-64
2022/03/04 11:05:48;;;;;;;12.27;3.85;;;;;;;1.92;50.48;98929.50;5057567;28;20045;-63
2022/03/04 11:08:16;;;;;;;12.15;3.28;;;;;;;1.80;50.74;98934.59;5051966;28;20114;-62
2022/03/04 11:10:44;;;;;;;6.10;2.88;;;;;;;1.65;51.72;98931.16;5051799;28;20053;-62
2022/03/04 11:13:12;;;;;;;8.30;3.10;;;;;;;1.76;51.16;98922.56;5053173;28;20048;-62
2022/03/04 11:15:42;;;;;;;6.13;3.25;;;;;;;1.86;50.98;98925.19;5058195;28;20048;-63
2022/03/04 11:18:11;;;;;;;6.00;2.88;;;;;;;1.88;50.84;98919.41;5051978;28;20045;-61
2022/03/04 11:20:42;;;;;;;5.67;3.07;;;;;;;1.74;51.52;98924.78;5050545;28;20059;-61
2022/03/04 11:23:15;;;;;;;5.53;2.80;;;;;;;1.49;51.63;98916.00;5056542;28;20305;-63
2022/03/04 11:25:44;;;;;;;7.43;2.97;;;;;;;1.33;51.93;98923.53;5050949;28;20127;-62
2022/03/04 11:28:18;;;;;;;5.28;3.05;;;;;;;1.38;52.15;98920.75;5051934;28;20048;-60
2022/03/04 11:30:46;;;;;;;5.93;2.88;;;;;;;1.47;52.04;98924.50;5056307;28;20049;-66
2022/03/04 11:33:21;;;;;;;6.15;3.30;;;;;;;1.43;52.03;98920.72;5060759;28;20551;-65